Terminal Aerodrome Forecast
Issued by NWS

Home | Current Version | Previous Version | Text Only | Print | Product List | Glossary On
Versions: 1 2 3 4 5 6 7 8 9 10 11 12 13 14 15 16 17 18
000
FTUS44 KJAN 271519 AAA
TAFGTR
TAF AMD
KGTR 271519Z 2715/2812 14006KT P6SM BKN008 OVC014
     FM271600 17008KT P6SM BKN017
     FM271700 18009KT P6SM BKN025
     FM272000 18006KT P6SM VCTS BKN050CB
     FM280000 16004KT P6SM BKN250=

USA.gov is the U.S. government's official web portal to all federal, state and local government web resources and services.